Time;durP1;ratioP1;P1;durP2;ratioP2;P2;SDS_P1;SDS_P2;PMS_P1;PMS_P2;Temp;Humidity;BMP_temperature;BMP_pressure;BME280_temperature;BME280_humidity;BME280_pressure;Samples;Min_cycle;Max_cycle;Signal;HPM_P1;HPM_P2
2022/08/03 00:00:31;;;;;;;7.65;2.38;;;;;;;24.66;52.19;101452.09;5063764;28;20081;-69
2022/08/03 00:02:59;;;;;;;4.65;2.28;;;;;;;24.64;52.38;101449.63;5063447;28;20075;-69
2022/08/03 00:05:27;;;;;;;5.88;2.22;;;;;;;24.62;52.22;101443.63;5063091;28;20076;-69
2022/08/03 00:07:54;;;;;;;5.22;2.17;;;;;;;24.63;52.48;101455.44;5063301;28;20076;-69
2022/08/03 00:10:24;;;;;;;5.97;2.70;;;;;;;24.60;52.66;101456.84;5062236;28;20060;-69
2022/08/03 00:12:51;;;;;;;7.03;2.08;;;;;;;24.58;52.60;101444.53;5063805;28;20140;-69
2022/08/03 00:15:19;;;;;;;5.57;2.47;;;;;;;24.57;52.25;101445.66;5064025;28;20044;-69
2022/08/03 00:17:47;;;;;;;5.05;1.80;;;;;;;24.55;52.67;101445.94;5062218;28;20055;-69
2022/08/03 00:20:21;;;;;;;5.47;2.35;;;;;;;24.52;52.43;101443.81;5062327;28;20053;-69
2022/08/03 00:22:49;;;;;;;8.73;2.55;;;;;;;24.50;52.74;101451.53;5047452;28;20430;-69
2022/08/03 00:25:18;;;;;;;6.63;2.00;;;;;;;24.49;52.87;101451.84;5061766;28;20051;-69
2022/08/03 00:27:47;;;;;;;7.68;2.08;;;;;;;24.47;52.97;101446.63;5062762;28;20045;-69
2022/08/03 00:30:16;;;;;;;5.50;2.42;;;;;;;24.44;52.73;101458.22;5062459;28;20052;-69
2022/08/03 00:32:44;;;;;;;8.02;2.35;;;;;;;24.43;52.83;101451.09;5063521;28;20490;-69
2022/08/03 00:35:12;;;;;;;4.93;1.95;;;;;;;24.40;52.74;101448.94;5062261;28;20052;-69
2022/08/03 00:38:00;;;;;;;4.57;2.08;;;;;;;24.38;53.28;101442.94;5063232;28;20079;-68
2022/08/03 00:40:28;;;;;;;8.18;2.22;;;;;;;24.36;53.44;101447.09;5061222;28;20072;-69
2022/08/03 00:42:59;;;;;;;5.03;2.60;;;;;;;24.34;53.51;101444.66;5063667;28;20056;-69
2022/08/03 00:45:29;;;;;;;5.57;1.90;;;;;;;24.32;53.41;101441.38;5063120;28;20053;-69
2022/08/03 00:47:57;;;;;;;6.13;2.33;;;;;;;24.27;53.10;101439.53;5062250;28;20045;-69
2022/08/03 00:50:28;;;;;;;5.85;2.13;;;;;;;24.25;53.54;101433.53;5051903;28;20118;-68
2022/08/03 00:52:59;;;;;;;5.60;2.45;;;;;;;24.27;53.66;101435.97;5060580;28;20076;-68
2022/08/03 00:55:27;;;;;;;5.60;2.30;;;;;;;24.24;53.45;101437.41;5059228;28;20076;-68
2022/08/03 00:57:58;;;;;;;4.57;1.70;;;;;;;24.23;53.35;101434.94;5062391;28;20080;-68
2022/08/03 01:00:27;;;;;;;7.70;2.60;;;;;;;24.21;53.60;101432.50;5063247;28;20454;-68
2022/08/03 01:02:55;;;;;;;4.35;2.15;;;;;;;24.19;53.76;101437.47;5061670;28;20063;-68
2022/08/03 01:05:23;;;;;;;6.10;2.13;;;;;;;24.17;53.25;101434.22;5062396;28;20068;-68
2022/08/03 01:08:03;;;;;;;6.68;2.60;;;;;;;24.16;53.76;101443.56;5046372;28;20528;-68
2022/08/03 01:10:39;;;;;;;6.95;2.00;;;;;;;24.15;53.41;101432.88;5062578;28;20050;-68
2022/08/03 01:13:20;;;;;;;5.95;2.33;;;;;;;24.13;53.67;101432.38;5049993;28;20037;-68
2022/08/03 01:16:12;;;;;;;5.80;2.22;;;;;;;24.11;53.83;101435.41;5056907;28;20053;-68
2022/08/03 01:18:45;;;;;;;4.57;2.72;;;;;;;24.10;53.52;101432.97;5062272;28;20049;-68
2022/08/03 01:21:21;;;;;;;4.95;2.72;;;;;;;24.07;53.42;101428.88;5061460;28;20052;-68
2022/08/03 01:24:02;;;;;;;6.50;3.53;;;;;;;24.05;53.43;101425.63;5062388;28;20060;-68
2022/08/03 01:26:53;;;;;;;5.75;2.20;;;;;;;24.01;53.50;101417.16;5062323;28;20084;-69
2022/08/03 01:29:55;;;;;;;6.43;2.50;;;;;;;24.03;53.89;101425.09;5062084;28;20048;-69
2022/08/03 01:32:27;;;;;;;5.47;2.17;;;;;;;24.02;53.50;101420.72;5053112;28;20053;-68
2022/08/03 01:35:22;;;;;;;6.45;2.40;;;;;;;24.02;53.76;101429.78;5060140;28;20048;-68
2022/08/03 01:37:52;;;;;;;6.60;2.75;;;;;;;24.00;53.53;101423.75;5063077;28;20056;-69
2022/08/03 01:40:22;;;;;;;7.35;2.13;;;;;;;24.00;53.94;101422.94;5063534;28;20049;-68
2022/08/03 01:42:51;;;;;;;4.35;1.92;;;;;;;23.97;53.88;101418.88;5060605;28;20073;-68
2022/08/03 01:45:22;;;;;;;5.75;2.60;;;;;;;23.97;53.98;101418.06;5062640;28;20069;-69
2022/08/03 01:47:51;;;;;;;6.85;2.15;;;;;;;23.93;54.01;101414.25;5062008;28;20045;-69
2022/08/03 01:50:22;;;;;;;8.73;2.50;;;;;;;23.94;53.74;101416.72;5062208;28;20045;-68
2022/08/03 01:52:51;;;;;;;3.95;2.15;;;;;;;23.94;53.88;101419.47;5061274;28;20091;-68
2022/08/03 01:55:21;;;;;;;5.93;2.38;;;;;;;23.92;54.05;101416.19;5063998;28;20077;-68
2022/08/03 01:57:50;;;;;;;4.85;2.22;;;;;;;23.83;54.20;101403.44;5056168;28;20058;-68
2022/08/03 02:00:36;;;;;;;4.90;2.47;;;;;;;23.89;53.54;101408.56;5066136;28;20131;-69
2022/08/03 02:03:06;;;;;;;5.55;2.10;;;;;;;23.88;54.36;101414.34;5065176;28;20084;-69
2022/08/03 02:05:36;;;;;;;8.85;2.13;;;;;;;23.87;53.82;101410.78;5065973;28;20053;-69
2022/08/03 02:08:06;;;;;;;7.15;2.50;;;;;;;23.86;54.12;101408.34;5065907;28;20060;-68
2022/08/03 02:10:35;;;;;;;4.03;2.17;;;;;;;23.85;53.90;101412.19;5066876;28;20056;-69
2022/08/03 02:13:07;;;;;;;5.90;2.17;;;;;;;23.83;53.87;101406.19;5066072;28;20072;-68
2022/08/03 02:15:37;;;;;;;6.97;2.30;;;;;;;23.82;54.14;101407.28;5064251;28;20048;-68
2022/08/03 02:18:09;;;;;;;8.05;2.47;;;;;;;23.82;53.73;101410.03;5065791;28;20087;-68
2022/08/03 02:20:38;;;;;;;3.50;2.03;;;;;;;23.78;54.17;101412.56;5065029;28;20080;-68
2022/08/03 02:23:06;;;;;;;3.92;2.17;;;;;;;23.77;54.17;101413.66;5061847;28;20071;-68
2022/08/03 02:25:38;;;;;;;5.80;2.28;;;;;;;23.74;54.27;101408.78;5057354;28;20068;-68
2022/08/03 02:28:10;;;;;;;6.30;2.30;;;;;;;23.68;54.39;101405.28;5064958;28;20056;-67
2022/08/03 02:30:42;;;;;;;5.60;2.13;;;;;;;23.70;54.44;101418.72;5065600;28;20051;-68
2022/08/03 02:33:16;;;;;;;6.43;2.70;;;;;;;23.67;54.68;101411.88;5053616;28;20186;-68
2022/08/03 02:35:46;;;;;;;6.82;2.50;;;;;;;23.65;54.59;101405.88;5065789;28;20099;-68
2022/08/03 02:38:16;;;;;;;9.77;2.55;;;;;;;23.62;54.43;101408.41;5064308;28;20057;-68
2022/08/03 02:40:46;;;;;;;7.10;2.65;;;;;;;23.60;54.41;101405.13;5064502;28;20084;-68
2022/08/03 02:43:20;;;;;;;4.60;2.28;;;;;;;23.58;54.40;101396.38;5065350;28;20044;-68
2022/08/03 02:45:51;;;;;;;6.72;2.25;;;;;;;23.54;54.59;101403.56;5062867;28;20514;-68
2022/08/03 02:48:22;;;;;;;3.92;2.25;;;;;;;23.55;54.52;101399.72;5064734;28;20049;-68
2022/08/03 02:50:54;;;;;;;3.45;1.80;;;;;;;23.53;54.85;101396.41;5065678;28;20470;-68
2022/08/03 02:53:23;;;;;;;5.75;2.50;;;;;;;23.48;54.67;101396.50;5062719;28;20084;-68
2022/08/03 02:55:53;;;;;;;5.95;1.95;;;;;;;23.48;54.80;101393.75;5064361;28;20037;-68
2022/08/03 02:58:23;;;;;;;7.47;2.75;;;;;;;23.47;54.52;101400.34;5064079;28;20080;-68
2022/08/03 03:00:53;;;;;;;4.40;2.38;;;;;;;23.45;54.89;101394.34;5055363;28;20074;-68
2022/08/03 03:03:23;;;;;;;6.55;2.25;;;;;;;23.44;55.05;101400.94;5061898;28;20114;-68
2022/08/03 03:05:55;;;;;;;7.38;2.90;;;;;;;23.41;54.97;101402.34;5065438;28;20055;-68
2022/08/03 03:08:25;;;;;;;3.65;2.08;;;;;;;23.38;54.62;101391.94;5064149;28;20075;-68
2022/08/03 03:10:56;;;;;;;3.75;2.22;;;;;;;23.38;54.70;101394.69;5064033;28;20056;-68
2022/08/03 03:13:25;;;;;;;4.50;2.20;;;;;;;23.36;54.88;101392.25;5057261;28;20045;-68
2022/08/03 03:15:56;;;;;;;5.57;2.35;;;;;;;23.34;54.83;101385.41;5064580;28;20056;-68
2022/08/03 03:18:25;;;;;;;4.78;2.40;;;;;;;23.33;54.88;101392.03;5063180;28;20068;-68
2022/08/03 03:20:53;;;;;;;6.45;2.60;;;;;;;23.33;55.16;101389.28;5063882;28;20052;-68
2022/08/03 03:23:23;;;;;;;4.80;2.22;;;;;;;23.31;54.73;101389.56;5063517;28;20406;-68
2022/08/03 03:25:52;;;;;;;5.43;2.30;;;;;;;23.31;55.00;101389.56;5065521;28;20044;-68
2022/08/03 03:28:20;;;;;;;6.03;2.28;;;;;;;23.31;54.98;101388.75;5059912;28;20041;-68
2022/08/03 03:30:48;;;;;;;8.18;2.72;;;;;;;23.30;55.34;101393.41;5064735;28;20053;-68
2022/08/03 03:33:21;;;;;;;5.88;2.30;;;;;;;23.29;54.79;101397.28;5062991;28;20056;-68
2022/08/03 03:35:50;;;;;;;5.65;2.42;;;;;;;23.28;54.75;101381.09;5063609;28;20071;-68
2022/08/03 03:38:19;;;;;;;9.23;2.53;;;;;;;23.29;54.62;101390.97;5064480;28;20048;-68
2022/08/03 03:40:47;;;;;;;8.25;2.40;;;;;;;23.27;54.45;101394.00;5061760;28;20088;-69
2022/08/03 03:43:17;;;;;;;7.15;2.40;;;;;;;23.25;54.67;101392.66;5061186;28;20052;-69
2022/08/03 03:45:45;;;;;;;5.45;2.22;;;;;;;23.25;55.07;101395.41;5064905;28;20417;-69
2022/08/03 03:48:14;;;;;;;6.55;2.42;;;;;;;23.24;55.11;101394.59;5063039;28;20052;-69
2022/08/03 03:50:44;;;;;;;4.38;2.30;;;;;;;23.23;54.71;101389.41;5061836;28;20079;-69
2022/08/03 03:53:13;;;;;;;3.85;2.05;;;;;;;23.19;54.46;101391.09;5062967;28;20055;-69
2022/08/03 03:55:42;;;;;;;7.00;2.22;;;;;;;23.21;54.86;101395.19;5063438;28;20087;-68
2022/08/03 03:58:30;;;;;;;4.97;2.65;;;;;;;23.19;55.08;101393.84;5063398;28;20059;-69
2022/08/03 04:00:57;;;;;;;8.27;2.40;;;;;;;23.19;55.05;101399.31;5062297;28;20080;-69
2022/08/03 04:03:25;;;;;;;5.88;2.17;;;;;;;23.17;54.88;101385.09;5062864;28;20041;-69
2022/08/03 04:11:45;;;;;;;6.20;2.30;;;;;;;23.11;54.88;101384.34;5063634;28;20084;-70
2022/08/03 04:14:16;;;;;;;3.95;2.42;;;;;;;23.05;55.19;101377.28;5062782;28;20052;-69
2022/08/03 04:16:48;;;;;;;4.95;2.17;;;;;;;23.08;55.27;101384.91;5061787;28;20037;-69
2022/08/03 04:19:20;;;;;;;6.03;2.25;;;;;;;23.06;55.18;101389.88;5060139;28;20072;-68
2022/08/03 04:21:54;;;;;;;4.20;2.28;;;;;;;23.04;55.14;101389.34;5051361;28;20048;-69
2022/08/03 04:24:28;;;;;;;6.22;2.28;;;;;;;23.02;55.03;101391.56;5061677;28;20064;-70
2022/08/03 04:26:59;;;;;;;3.97;2.20;;;;;;;22.99;54.90;101390.22;4706771;28;10000278;-72
2022/08/03 04:29:32;;;;;;;5.32;2.38;;;;;;;22.97;55.11;101394.38;5052282;28;20053;-71
2022/08/03 04:32:01;;;;;;;7.75;2.70;;;;;;;22.92;55.18;101389.75;5053441;28;20060;-71
2022/08/03 04:34:30;;;;;;;4.70;2.00;;;;;;;22.92;55.39;101399.91;5058011;28;20049;-71
2022/08/03 04:37:02;;;;;;;5.30;2.35;;;;;;;22.91;55.16;101406.50;5046535;28;20518;-71
2022/08/03 04:39:32;;;;;;;7.75;2.20;;;;;;;22.91;55.44;101403.75;5058878;28;20313;-71
2022/08/03 04:42:03;;;;;;;5.07;2.20;;;;;;;22.89;55.60;101404.06;5058754;28;20135;-72
2022/08/03 04:44:39;;;;;;;4.97;2.42;;;;;;;22.83;55.44;101390.69;5044382;28;20056;-73
2022/08/03 04:47:07;;;;;;;6.32;2.53;;;;;;;22.88;55.20;101407.09;5055777;28;20045;-72
2022/08/03 04:49:36;;;;;;;4.57;2.67;;;;;;;22.87;55.32;101395.31;5053582;28;20087;-73
2022/08/03 04:52:08;;;;;;;3.85;2.17;;;;;;;22.85;54.93;101396.69;5058580;28;20056;-71
2022/08/03 04:54:40;;;;;;;7.53;2.10;;;;;;;22.84;55.24;101406.03;5058844;28;20051;-71
2022/08/03 04:57:08;;;;;;;5.38;2.83;;;;;;;22.83;55.43;101407.94;5059363;28;20091;-72
2022/08/03 04:59:36;;;;;;;6.90;2.50;;;;;;;22.82;55.48;101408.25;5057763;28;20052;-72
2022/08/03 05:02:07;;;;;;;6.63;2.60;;;;;;;22.79;55.33;101417.88;5056899;28;20053;-72
2022/08/03 05:04:36;;;;;;;6.70;2.40;;;;;;;22.79;55.43;101417.00;5059411;28;20041;-71
2022/08/03 05:07:05;;;;;;;3.25;2.00;;;;;;;22.78;55.63;101409.91;5057649;28;20071;-70
2022/08/03 05:09:39;;;;;;;4.07;2.25;;;;;;;22.78;55.27;101409.91;5057105;28;20580;-71
2022/08/03 05:12:19;;;;;;;4.45;2.85;;;;;;;22.77;55.24;101411.81;5060441;28;20059;-72
2022/08/03 05:14:47;;;;;;;4.72;2.17;;;;;;;22.77;55.24;101419.22;5059113;28;20049;-70
2022/08/03 05:17:14;;;;;;;4.82;2.30;;;;;;;22.78;55.18;101418.94;5059120;28;20076;-72
2022/08/03 05:19:42;;;;;;;5.32;2.63;;;;;;;22.77;55.20;101431.00;5045997;28;20168;-71
2022/08/03 05:22:11;;;;;;;5.10;2.25;;;;;;;22.77;55.39;101430.19;5049759;28;20087;-72
2022/08/03 05:24:39;;;;;;;5.70;2.30;;;;;;;22.76;55.23;101432.13;5059090;28;20129;-72
2022/08/03 05:27:07;;;;;;;6.88;2.65;;;;;;;22.78;55.10;101431.81;5058556;28;20055;-72
2022/08/03 05:29:34;;;;;;;4.30;2.50;;;;;;;22.79;55.17;101434.31;5059288;28;20075;-67
2022/08/03 05:32:02;;;;;;;7.43;2.72;;;;;;;22.80;54.92;101430.47;5067872;28;20433;-68
2022/08/03 05:34:34;;;;;;;5.88;2.78;;;;;;;22.81;54.72;101429.34;5066396;28;20382;-66
2022/08/03 05:37:02;;;;;;;8.52;2.22;;;;;;;22.83;56.12;101432.63;5064971;28;20053;-65
2022/08/03 05:39:31;;;;;;;6.18;2.35;;;;;;;22.85;55.39;101435.06;5060943;28;20084;-65
2022/08/03 05:41:59;;;;;;;4.28;2.38;;;;;;;22.87;55.53;101432.84;5063286;28;20100;-65
2022/08/03 05:44:28;;;;;;;5.65;2.42;;;;;;;22.87;55.46;101432.84;5064554;28;20079;-65
2022/08/03 05:46:57;;;;;;;6.20;2.20;;;;;;;22.92;55.43;101436.38;5066447;28;20052;-63
2022/08/03 05:49:24;;;;;;;5.85;2.53;;;;;;;22.95;55.05;101429.47;5066236;28;20428;-68
2022/08/03 05:51:52;;;;;;;6.43;2.70;;;;;;;22.98;55.08;101439.88;5063261;28;20160;-66
2022/08/03 05:54:41;;;;;;;6.75;2.53;;;;;;;23.01;55.25;101439.28;5062696;28;20129;-68
2022/08/03 05:57:23;;;;;;;5.70;2.40;;;;;;;23.03;55.05;101442.56;5061056;28;20907;-65
2022/08/03 05:59:51;;;;;;;4.72;2.08;;;;;;;23.05;55.21;101443.09;5062986;28;20053;-66
2022/08/03 06:02:24;;;;;;;7.60;3.08;;;;;;;23.05;54.94;101437.59;5064949;28;20052;-65
2022/08/03 06:04:52;;;;;;;5.35;2.78;;;;;;;23.06;55.03;101436.50;5062457;28;20105;-64
2022/08/03 06:07:20;;;;;;;5.85;2.30;;;;;;;23.06;54.69;101436.50;5067490;28;20135;-64
2022/08/03 06:09:49;;;;;;;5.47;2.80;;;;;;;23.04;55.12;101436.78;5067118;28;20061;-64
2022/08/03 06:12:37;;;;;;;6.63;2.30;;;;;;;23.04;54.83;101435.97;5061713;28;20052;-64
2022/08/03 06:15:06;;;;;;;3.90;2.65;;;;;;;23.04;55.02;101434.03;5061582;28;20152;-64
2022/08/03 06:17:45;;;;;;;2.75;1.90;;;;;;;23.04;54.94;101439.53;5063472;28;20045;-64
2022/08/03 06:20:12;;;;;;;5.72;2.30;;;;;;;23.10;55.97;101440.28;5043255;28;20050;-64
2022/08/03 06:22:40;;;;;;;8.25;2.58;;;;;;;23.11;54.95;101441.09;5064021;28;20104;-64
2022/08/03 06:25:19;;;;;;;3.15;1.90;;;;;;;23.11;54.84;101436.44;5057916;28;20037;-64
2022/08/03 06:27:48;;;;;;;5.28;2.33;;;;;;;23.13;55.14;101439.69;5063102;28;20086;-64
2022/08/03 06:30:17;;;;;;;4.82;2.60;;;;;;;23.16;55.32;101438.31;5061550;28;20105;-64
2022/08/03 06:32:48;;;;;;;6.82;2.45;;;;;;;23.17;54.93;101437.19;5064306;28;20059;-65
2022/08/03 06:35:19;;;;;;;7.53;2.05;;;;;;;23.20;55.19;101436.59;5063547;28;20060;-65
2022/08/03 06:37:50;;;;;;;8.27;3.05;;;;;;;23.22;55.06;101437.13;5065888;28;20048;-65
2022/08/03 06:40:27;;;;;;;7.32;2.55;;;;;;;23.23;55.01;101433.28;5063877;28;20084;-64
2022/08/03 06:42:55;;;;;;;5.45;2.58;;;;;;;23.24;55.25;101441.22;5064868;28;20152;-64
2022/08/03 06:45:23;;;;;;;5.80;2.30;;;;;;;23.27;55.25;101442.56;5052489;28;20072;-65
2022/08/03 06:48:00;;;;;;;7.72;2.72;;;;;;;23.25;55.21;101445.59;5046617;28;20088;-64
2022/08/03 06:50:28;;;;;;;6.05;2.33;;;;;;;23.31;55.21;101447.16;5055723;28;20091;-65
2022/08/03 06:52:56;;;;;;;6.47;2.35;;;;;;;23.36;55.35;101447.09;5060551;28;20052;-65
2022/08/03 06:55:25;;;;;;;7.72;2.47;;;;;;;23.37;55.09;101447.94;5050185;28;20060;-66
2022/08/03 06:57:53;;;;;;;8.10;2.45;;;;;;;23.38;54.94;101447.63;5061929;28;20497;-66
2022/08/03 07:00:27;;;;;;;7.47;2.10;;;;;;;23.38;55.17;101450.38;5057862;28;20122;-64
2022/08/03 07:02:55;;;;;;;4.25;2.08;;;;;;;23.40;55.10;101452.81;5061875;28;20089;-66
2022/08/03 07:05:25;;;;;;;6.50;2.30;;;;;;;23.42;54.78;101447.03;5069119;28;20049;-67
2022/08/03 07:07:55;;;;;;;5.70;2.15;;;;;;;23.31;54.92;101429.91;5061506;28;20076;-66
2022/08/03 07:10:24;;;;;;;4.68;2.38;;;;;;;23.40;55.13;101452.00;5061513;28;20041;-67
2022/08/03 07:12:52;;;;;;;4.82;1.95;;;;;;;23.40;54.93;101460.25;5061519;28;20171;-65
2022/08/03 07:15:23;;;;;;;5.32;2.15;;;;;;;23.37;55.23;101459.72;5048758;28;20053;-64
2022/08/03 07:18:11;;;;;;;5.72;2.15;;;;;;;23.38;55.69;101457.78;5062862;28;20059;-64
2022/08/03 07:20:39;;;;;;;8.65;2.13;;;;;;;23.35;55.79;101461.94;5062723;28;20060;-63
2022/08/03 07:23:07;;;;;;;10.40;2.97;;;;;;;23.32;55.53;101464.44;5062289;28;20532;-63
2022/08/03 07:25:36;;;;;;;9.07;3.05;;;;;;;23.31;55.35;101463.63;5066910;28;20077;-62
2022/08/03 07:28:04;;;;;;;8.07;2.30;;;;;;;23.30;55.62;101467.47;5064942;28;20091;-63
2022/08/03 07:30:32;;;;;;;9.35;2.20;;;;;;;23.29;55.70;101474.06;5065846;28;20091;-62
2022/08/03 07:33:00;;;;;;;9.23;2.10;;;;;;;23.27;55.51;101470.81;5065258;28;20095;-63
2022/08/03 07:35:28;;;;;;;8.40;2.63;;;;;;;23.28;55.35;101477.09;5064036;28;20088;-63
2022/08/03 07:37:55;;;;;;;16.05;2.65;;;;;;;23.32;55.52;101476.22;5065735;28;20049;-62
2022/08/03 07:40:23;;;;;;;9.85;2.17;;;;;;;23.30;55.32;101475.72;5065720;28;20076;-63
2022/08/03 07:43:02;;;;;;;8.82;2.50;;;;;;;23.29;55.56;101473.25;5064699;28;20053;-63
2022/08/03 07:45:30;;;;;;;7.32;2.13;;;;;;;23.29;55.71;101468.59;5059265;28;20425;-62
2022/08/03 07:47:57;;;;;;;8.13;2.20;;;;;;;23.31;55.54;101468.28;5063348;28;20053;-65
2022/08/03 07:50:26;;;;;;;10.45;2.47;;;;;;;23.31;55.48;101471.03;5063982;28;20045;-62
2022/08/03 07:52:54;;;;;;;7.57;1.90;;;;;;;23.30;55.58;101475.72;5064325;28;20090;-62
2022/08/03 07:55:24;;;;;;;7.30;2.53;;;;;;;23.30;55.34;101467.47;5064483;28;20052;-64
2022/08/03 07:58:04;;;;;;;5.80;2.03;;;;;;;23.33;55.51;101463.34;5064998;28;20077;-65
2022/08/03 08:00:33;;;;;;;5.25;1.90;;;;;;;23.31;55.49;101465.56;5064072;28;20053;-64
2022/08/03 08:03:01;;;;;;;7.30;2.25;;;;;;;23.30;55.83;101467.47;5064706;28;20052;-64
2022/08/03 08:05:29;;;;;;;9.18;2.67;;;;;;;23.36;55.79;101471.78;5064039;28;20092;-63
2022/08/03 08:07:57;;;;;;;10.88;2.10;;;;;;;23.35;55.76;101467.41;5065229;28;20069;-63
2022/08/03 08:10:24;;;;;;;9.57;2.53;;;;;;;23.33;55.46;101466.91;5063721;28;20060;-64
2022/08/03 08:12:53;;;;;;;8.63;2.15;;;;;;;23.33;55.82;101466.91;5064901;28;20052;-63
2022/08/03 08:15:22;;;;;;;9.45;2.42;;;;;;;23.32;55.82;101467.19;5064669;28;20080;-64
2022/08/03 08:17:52;;;;;;;9.82;2.58;;;;;;;23.35;55.63;101466.59;5063596;28;20041;-63
2022/08/03 08:20:22;;;;;;;5.50;2.30;;;;;;;23.40;55.95;101471.22;5062998;28;20367;-63
2022/08/03 08:22:58;;;;;;;7.60;1.92;;;;;;;23.44;55.92;101475.00;5064483;28;20055;-63
2022/08/03 08:25:29;;;;;;;9.70;2.95;;;;;;;23.47;55.69;101463.44;5064206;28;20044;-63
2022/08/03 08:27:57;;;;;;;5.63;2.33;;;;;;;23.48;55.78;101465.91;5063972;28;20041;-64
2022/08/03 08:30:46;;;;;;;7.18;1.88;;;;;;;23.47;55.95;101464.25;5064294;28;20044;-63
2022/08/03 08:33:14;;;;;;;7.30;2.00;;;;;;;23.47;55.58;101458.78;5063156;28;20087;-64
2022/08/03 08:35:50;;;;;;;10.30;2.30;;;;;;;23.49;55.62;101459.31;5064297;28;20052;-64
2022/08/03 08:38:18;;;;;;;8.52;2.25;;;;;;;23.54;55.27;101455.69;5064602;28;20085;-64
2022/08/03 08:40:45;;;;;;;7.55;2.17;;;;;;;23.51;55.65;101459.00;5064017;28;20053;-63
2022/08/03 08:43:13;;;;;;;9.65;2.20;;;;;;;23.54;55.77;101462.00;5063569;28;20095;-63
2022/08/03 08:45:41;;;;;;;11.95;3.58;;;;;;;23.55;55.67;101463.63;5064099;28;20101;-63
2022/08/03 08:48:12;;;;;;;7.50;2.53;;;;;;;23.61;55.64;101459.72;5063890;28;20056;-64
2022/08/03 08:50:41;;;;;;;4.90;1.98;;;;;;;23.60;55.31;101451.78;5062605;28;20088;-64
2022/08/03 08:53:12;;;;;;;8.63;2.00;;;;;;;23.63;55.62;101457.50;5064098;28;20089;-64
2022/08/03 08:55:48;;;;;;;9.18;2.28;;;;;;;23.70;55.41;101457.13;5063587;28;20072;-64
2022/08/03 08:58:29;;;;;;;11.43;1.98;;;;;;;23.77;55.08;101454.84;5064479;28;20057;-64
2022/08/03 09:00:57;;;;;;;9.85;2.50;;;;;;;23.78;55.04;101450.16;5062890;28;20083;-64
2022/08/03 09:03:26;;;;;;;7.97;1.90;;;;;;;23.86;54.57;101444.84;5065745;28;20045;-64
2022/08/03 09:05:59;;;;;;;3.28;1.55;;;;;;;23.90;54.39;101453.28;5067398;28;20044;-64
2022/08/03 09:08:28;;;;;;;7.07;2.08;;;;;;;23.96;54.36;101450.19;5068354;28;20536;-64
2022/08/03 09:10:56;;;;;;;3.05;1.70;;;;;;;23.94;54.41;101455.16;5066593;28;20049;-64
2022/08/03 09:13:24;;;;;;;7.40;2.13;;;;;;;24.04;54.07;101450.63;5068510;28;20056;-64
2022/08/03 09:16:11;;;;;;;6.80;1.95;;;;;;;24.04;53.83;101456.94;5066883;28;20056;-65
2022/08/03 09:18:41;;;;;;;8.13;2.65;;;;;;;24.09;53.83;101456.84;5067263;28;20072;-64
2022/08/03 09:21:18;;;;;;;6.95;2.30;;;;;;;24.09;53.96;101456.03;5060228;28;20053;-64
2022/08/03 09:24:00;;;;;;;6.68;1.90;;;;;;;24.11;53.85;101456.56;5055667;28;20136;-64
2022/08/03 09:26:33;;;;;;;7.60;1.80;;;;;;;24.17;53.84;101461.69;5067505;28;20083;-63
2022/08/03 09:29:03;;;;;;;5.78;2.58;;;;;;;24.25;53.33;101454.69;5068306;28;20045;-63
2022/08/03 09:31:41;;;;;;;4.65;2.17;;;;;;;24.31;53.13;101459.00;5066110;28;20045;-65
2022/08/03 09:34:14;;;;;;;5.22;2.03;;;;;;;24.33;53.33;101449.34;5047179;28;20182;-64
2022/08/03 09:36:44;;;;;;;7.40;1.83;;;;;;;24.27;54.11;101460.72;5050525;28;20118;-64
2022/08/03 09:39:13;;;;;;;3.30;1.85;;;;;;;24.27;53.66;101455.22;5065621;28;20500;-64
2022/08/03 09:41:43;;;;;;;7.43;1.83;;;;;;;24.33;54.02;101449.34;5064952;28;20052;-64
2022/08/03 09:44:11;;;;;;;10.93;2.22;;;;;;;24.50;52.86;101453.47;5057823;28;20086;-62
2022/08/03 09:46:54;;;;;;;6.47;2.58;;;;;;;24.41;53.98;101444.28;4710439;28;10001419;-64
2022/08/03 09:49:24;;;;;;;5.25;1.80;;;;;;;24.39;53.76;101450.06;5073306;28;20509;-64
2022/08/03 09:51:52;;;;;;;6.20;1.95;;;;;;;24.37;54.03;101451.47;5062509;28;20079;-64
2022/08/03 09:54:41;;;;;;;8.30;1.80;;;;;;;24.36;54.42;101450.66;5060796;28;20056;-64
2022/08/03 09:57:19;;;;;;;8.20;2.58;;;;;;;24.37;54.74;101443.25;5061798;28;20064;-64
2022/08/03 09:59:47;;;;;;;5.80;2.15;;;;;;;24.40;54.52;101448.94;5061950;28;20053;-65
2022/08/03 10:02:23;;;;;;;5.78;2.10;;;;;;;24.42;54.59;101446.72;5062599;28;20124;-64
2022/08/03 10:04:53;;;;;;;7.28;2.40;;;;;;;24.50;53.98;101454.28;5064557;28;20052;-64
2022/08/03 10:07:23;;;;;;;10.98;2.58;;;;;;;24.56;53.96;101450.34;5071728;28;20128;-64
2022/08/03 10:09:54;;;;;;;9.10;2.80;;;;;;;24.56;54.86;101446.75;5065210;28;20077;-64
2022/08/03 10:12:22;;;;;;;9.43;1.98;;;;;;;24.59;54.78;101448.91;5073968;28;20103;-64
2022/08/03 10:14:52;;;;;;;5.72;1.90;;;;;;;24.59;54.66;101452.47;5060107;28;20052;-65
2022/08/03 10:17:20;;;;;;;8.20;2.30;;;;;;;24.63;54.96;101441.69;5061088;28;20509;-64
2022/08/03 10:19:49;;;;;;;7.90;2.35;;;;;;;24.67;54.27;101446.28;5061375;28;20112;-63
2022/08/03 10:22:21;;;;;;;8.23;2.40;;;;;;;24.72;54.73;101448.13;5055298;28;20064;-63
2022/08/03 10:24:53;;;;;;;7.78;2.28;;;;;;;24.76;54.34;101443.66;5063291;28;20076;-63
2022/08/03 10:27:23;;;;;;;8.98;2.20;;;;;;;24.78;54.64;101437.84;5064133;28;20475;-63
2022/08/03 10:29:53;;;;;;;16.10;2.67;;;;;;;24.80;54.40;101441.13;5063293;28;20081;-63
2022/08/03 10:32:27;;;;;;;8.15;2.60;;;;;;;24.84;54.54;101436.66;5062034;28;20447;-63
2022/08/03 10:35:04;;;;;;;13.38;2.40;;;;;;;24.87;54.16;101431.34;5062491;28;20091;-63
2022/08/03 10:37:55;;;;;;;12.82;2.88;;;;;;;24.91;54.11;101437.06;5065386;28;20075;-63
2022/08/03 10:40:28;;;;;;;11.00;2.13;;;;;;;24.96;54.19;101434.22;5059396;28;20365;-63
2022/08/03 10:43:21;;;;;;;9.23;2.30;;;;;;;25.02;54.43;101424.78;5061624;28;20087;-63
2022/08/03 10:45:50;;;;;;;15.32;2.95;;;;;;;25.07;54.20;101419.19;5062383;28;20520;-62
2022/08/03 10:48:19;;;;;;;8.75;2.28;;;;;;;25.08;54.01;101415.31;5059854;28;20045;-62
2022/08/03 10:50:49;;;;;;;9.00;2.10;;;;;;;25.15;53.70;101418.47;5063620;28;20132;-62
2022/08/03 10:53:34;;;;;;;7.15;2.75;;;;;;;25.21;53.57;101414.50;5060998;28;20079;-62
2022/08/03 10:59:01;;;;;;;11.20;2.50;;;;;;;25.25;53.45;101404.50;5048377;28;20482;-62
2022/08/03 11:01:51;;;;;;;10.60;2.65;;;;;;;25.28;53.03;101400.31;5059858;28;20416;-63
2022/08/03 11:04:28;;;;;;;7.47;2.45;;;;;;;25.33;52.90;101407.66;5054598;28;20053;-62
2022/08/03 11:07:19;;;;;;;12.15;3.28;;;;;;;25.36;52.78;101398.78;5063681;28;20069;-62
2022/08/03 11:09:50;;;;;;;12.43;2.28;;;;;;;25.40;52.87;101399.81;5060172;28;20052;-62
2022/08/03 11:12:22;;;;;;;7.95;2.22;;;;;;;25.45;52.29;101391.44;5057193;28;20045;-62
2022/08/03 11:14:59;;;;;;;9.65;2.28;;;;;;;25.51;52.58;101390.19;5058983;28;20108;-61
2022/08/03 11:17:27;;;;;;;13.00;2.72;;;;;;;25.57;52.92;101389.78;5061251;28;20048;-61
2022/08/03 11:19:55;;;;;;;5.88;1.73;;;;;;;25.65;52.19;101390.19;5064242;28;20071;-61
2022/08/03 11:22:27;;;;;;;7.15;2.10;;;;;;;25.68;52.47;101387.63;5057661;28;20075;-62
2022/08/03 11:25:03;;;;;;;9.35;1.95;;;;;;;25.71;51.63;101384.25;5065876;28;20053;-62
2022/08/03 11:27:32;;;;;;;;;;;;;;;25.76;51.81;101386.91;5061074;28;20068;-64
2022/08/03 11:30:01;;;;;;;8.80;2.45;;;;;;;25.81;52.36;101383.22;5060359;28;20003;-66
2022/08/03 11:32:57;;;;;;;6.68;2.35;;;;;;;25.90;52.28;101386.84;5062733;28;20175;-66
2022/08/03 11:35:27;;;;;;;6.10;1.90;;;;;;;25.95;51.89;101397.75;5054675;28;20084;-67
2022/08/03 11:38:03;;;;;;;4.45;1.70;;;;;;;26.01;51.99;101390.97;5062280;28;20080;-66
2022/08/03 11:40:45;;;;;;;9.27;2.28;;;;;;;26.04;51.79;101392.28;5063973;28;20049;-62
2022/08/03 11:43:44;;;;;;;11.18;2.67;;;;;;;26.07;51.46;101386.97;5061153;28;20080;-66
2022/08/03 11:46:17;;;;;;;5.70;1.45;;;;;;;26.14;51.80;101384.59;5054992;28;20041;-65
2022/08/03 11:49:05;;;;;;;6.85;1.90;;;;;;;26.19;51.60;101384.44;5061161;28;20053;-62
2022/08/03 11:51:39;;;;;;;12.60;2.15;;;;;;;26.25;51.76;101382.38;5060852;28;20045;-65
2022/08/03 11:54:07;;;;;;;4.65;2.00;;;;;;;26.24;51.45;101384.31;5063562;28;20049;-66